createdAt,value
2022-10-11T00:02:23.768Z,100455.61
2022-10-11T00:04:52.566Z,100457.06
2022-10-11T00:07:19.933Z,100458.36
2022-10-11T00:09:47.254Z,100460.36
2022-10-11T00:12:14.727Z,100458.83
2022-10-11T00:14:42.185Z,100460.17
2022-10-11T00:17:09.738Z,100465.65
2022-10-11T00:19:36.884Z,100467.41
2022-10-11T00:22:03.962Z,100464.52
2022-10-11T00:24:31.290Z,100462.64
2022-10-11T00:26:58.467Z,100463.09
2022-10-11T00:29:25.536Z,100465.50
2022-10-11T00:31:52.828Z,100467.17
2022-10-11T00:34:20.207Z,100469.49
2022-10-11T00:36:47.461Z,100475.99
2022-10-11T00:39:14.715Z,100480.77
2022-10-11T00:41:42.733Z,100480.46
2022-10-11T00:44:14.775Z,100484.92
2022-10-11T00:46:45.729Z,100488.05
2022-10-11T00:49:20.033Z,100490.36
2022-10-11T00:51:56.582Z,100490.90
2022-10-11T00:54:26.255Z,100488.35
2022-10-11T00:56:57.522Z,100486.38
2022-10-11T00:59:28.520Z,100486.55
2022-10-11T01:01:55.993Z,100491.64
2022-10-11T01:04:23.908Z,100496.47
2022-10-11T01:06:51.152Z,100496.04
2022-10-11T01:09:19.744Z,100498.09
2022-10-11T01:11:47.855Z,100497.92
2022-10-11T01:14:20.989Z,100497.88
2022-10-11T01:17:05.738Z,100498.67
2022-10-11T01:20:03.902Z,100495.63
2022-10-11T01:22:39.852Z,100501.03
2022-10-11T01:25:25.644Z,100501.15
2022-10-11T01:28:04.058Z,100498.32
2022-10-11T01:30:34.067Z,100504.09
2022-10-11T01:33:19.419Z,100504.04
2022-10-11T01:36:05.318Z,100504.09
2022-10-11T01:38:45.224Z,100510.37
2022-10-11T01:41:38.444Z,100508.27
2022-10-11T01:44:07.549Z,100512.08
2022-10-11T01:46:35.070Z,100511.80
2022-10-11T01:49:03.552Z,100511.16
2022-10-11T01:51:34.819Z,100510.63
2022-10-11T01:54:20.597Z,100510.48
2022-10-11T01:57:01.539Z,100511.38
2022-10-11T01:59:50.484Z,100514.74
2022-10-11T02:02:27.650Z,100516.24
2022-10-11T02:05:01.248Z,100518.17
2022-10-11T02:07:42.506Z,100520.01
2022-10-11T02:10:22.058Z,100523.96
2022-10-11T02:12:56.775Z,100528.78
2022-10-11T02:15:24.245Z,100530.71
2022-10-11T02:17:55.945Z,100531.36
2022-10-11T02:20:25.715Z,100533.92
2022-10-11T02:23:16.381Z,100536.27
2022-10-11T02:25:46.018Z,100537.76
2022-10-11T02:28:19.347Z,100541.52
2022-10-11T02:30:48.397Z,100549.17
2022-10-11T02:33:19.517Z,100552.55
2022-10-11T02:35:50.109Z,100556.28
2022-10-11T02:38:21.934Z,100557.36
2022-10-11T02:40:55.885Z,100562.76
2022-10-11T02:43:47.796Z,100567.56
2022-10-11T02:46:17.656Z,100567.98
2022-10-11T02:48:45.159Z,100573.50
2022-10-11T02:51:14.404Z,100579.72
2022-10-11T02:53:41.595Z,100586.09
2022-10-11T02:56:09.110Z,100587.06
2022-10-11T02:58:36.250Z,100588.98
2022-10-11T03:01:03.453Z,100589.52
2022-10-11T03:03:30.617Z,100594.06
2022-10-11T03:06:02.124Z,100595.73
2022-10-11T03:08:29.904Z,100596.95
2022-10-11T03:10:57.279Z,100598.77
2022-10-11T03:13:24.538Z,100604.05
2022-10-11T03:16:02.898Z,100609.73
2022-10-11T03:18:31.042Z,100610.96
2022-10-11T03:20:58.267Z,100616.16
2022-10-11T03:23:25.608Z,100617.83
2022-10-11T03:25:53.173Z,100621.33
2022-10-11T03:28:21.118Z,100626.05
2022-10-11T03:30:51.723Z,100627.65
2022-10-11T03:33:19.619Z,100628.69
2022-10-11T03:35:47.915Z,100630.66
2022-10-11T03:38:18.355Z,100636.52
2022-10-11T03:40:46.120Z,100635.98
2022-10-11T03:43:13.468Z,100643.42
2022-10-11T03:45:42.661Z,100645.27
2022-10-11T03:48:10.526Z,100652.21
2022-10-11T03:50:38.610Z,100664.05
2022-10-11T03:53:07.515Z,100673.96
2022-10-11T03:55:34.758Z,100674.02
2022-10-11T03:58:02.217Z,100670.59
2022-10-11T04:00:29.448Z,100673.80
2022-10-11T04:02:56.805Z,100676.00
2022-10-11T04:05:24.171Z,100678.25
2022-10-11T04:07:51.617Z,100680.34
2022-10-11T04:10:19.088Z,100683.29
2022-10-11T04:12:46.727Z,100686.94
2022-10-11T04:15:14.024Z,100690.95
2022-10-11T04:17:41.637Z,100692.83
2022-10-11T04:20:10.053Z,100692.45
2022-10-11T04:22:38.693Z,100693.04
2022-10-11T04:25:07.746Z,100697.59
2022-10-11T04:27:35.055Z,100701.02
2022-10-11T04:30:02.269Z,100706.60
2022-10-11T04:32:29.480Z,100709.00
2022-10-11T04:34:56.604Z,100717.35
2022-10-11T04:37:26.204Z,100718.16
2022-10-11T04:39:53.368Z,100722.44
2022-10-11T04:42:21.748Z,100727.36
2022-10-11T04:44:49.011Z,100729.55
2022-10-11T04:47:16.248Z,100730.94
2022-10-11T04:49:43.508Z,100731.14
2022-10-11T04:52:10.745Z,100732.42
2022-10-11T04:54:37.909Z,100738.63
2022-10-11T04:57:05.368Z,100743.70
2022-10-11T04:59:32.828Z,100747.33
2022-10-11T05:02:00.241Z,100752.05
2022-10-11T05:04:28.247Z,100749.94
2022-10-11T05:06:56.094Z,100751.80
2022-10-11T05:09:23.569Z,100756.41
2022-10-11T05:11:50.692Z,100758.16
2022-10-11T05:14:17.952Z,100759.27
2022-10-11T05:16:46.232Z,100763.09
2022-10-11T05:19:13.446Z,100764.53
2022-10-11T05:21:40.666Z,100772.66
2022-10-11T05:24:08.226Z,100783.34
2022-10-11T05:26:35.759Z,100781.67
2022-10-11T05:29:03.035Z,100784.19
2022-10-11T05:31:30.774Z,100788.86
2022-10-11T05:33:57.924Z,100793.73
2022-10-11T05:36:25.198Z,100793.81
2022-10-11T05:38:52.430Z,100796.17
2022-10-11T05:41:19.905Z,100800.59
2022-10-11T05:43:47.667Z,100807.35
2022-10-11T05:46:15.533Z,100811.33
2022-10-11T05:48:43.291Z,100817.81
2022-10-11T05:51:12.479Z,100818.48
2022-10-11T05:53:40.448Z,100821.11
2022-10-11T05:56:22.255Z,100829.53
2022-10-11T05:58:51.278Z,100832.50
2022-10-11T06:01:20.746Z,100839.96
2022-10-11T06:03:48.568Z,100848.28
2022-10-11T06:06:16.485Z,100856.71
2022-10-11T06:08:44.323Z,100857.52
2022-10-11T06:11:25.099Z,100860.23
2022-10-11T06:13:56.268Z,100862.22
2022-10-11T06:16:23.614Z,100870.27
2022-10-11T06:18:57.893Z,100875.54
2022-10-11T06:21:25.411Z,100879.77
2022-10-11T06:23:58.275Z,100883.10
2022-10-11T06:26:28.073Z,100889.98
2022-10-11T06:28:55.411Z,100896.21
2022-10-11T06:31:23.098Z,100900.02
2022-10-11T06:33:50.227Z,100903.10
2022-10-11T06:36:18.018Z,100907.67
2022-10-11T06:38:45.591Z,100911.54
2022-10-11T06:41:21.520Z,100920.88
2022-10-11T06:43:50.421Z,100922.83
2022-10-11T06:46:20.047Z,100921.86
2022-10-11T06:48:48.923Z,100928.61
2022-10-11T06:51:19.116Z,100933.06
2022-10-11T06:53:53.546Z,100935.84
2022-10-11T06:56:21.000Z,100935.84
2022-10-11T06:58:48.353Z,100944.21
2022-10-11T07:01:19.342Z,100951.61
2022-10-11T07:03:47.045Z,100954.56
2022-10-11T07:06:20.256Z,100957.49
2022-10-11T07:08:48.119Z,100958.08
2022-10-11T07:11:18.657Z,100961.17
2022-10-11T07:13:51.742Z,100966.62
2022-10-11T07:16:19.916Z,100966.71
2022-10-11T07:18:47.797Z,100974.97
2022-10-11T07:21:16.477Z,100972.23
2022-10-11T07:23:43.723Z,100972.21
2022-10-11T07:26:11.575Z,100974.27
2022-10-11T07:28:40.890Z,100979.33
2022-10-11T07:31:14.999Z,100983.38
2022-10-11T07:33:42.576Z,100984.58
2022-10-11T07:36:11.124Z,100992.95
2022-10-11T07:38:42.495Z,100994.38
2022-10-11T07:41:10.558Z,100998.13
2022-10-11T07:43:38.748Z,101005.77
2022-10-11T07:46:06.516Z,101004.08
2022-10-11T07:48:35.639Z,101004.75
2022-10-11T07:51:10.109Z,101008.80
2022-10-11T07:53:48.323Z,101011.22
2022-10-11T07:56:18.052Z,101014.14
2022-10-11T07:58:45.594Z,101017.25
2022-10-11T08:01:14.980Z,101014.88
2022-10-11T08:03:42.238Z,101021.80
2022-10-11T08:06:10.732Z,101021.98
2022-10-11T08:08:38.795Z,101021.08
2022-10-11T08:11:06.556Z,101028.27
2022-10-11T08:13:34.435Z,101026.30
2022-10-11T08:16:02.613Z,101030.54
2022-10-11T08:18:30.065Z,101035.38
2022-10-11T08:20:57.303Z,101037.52
2022-10-11T08:23:24.553Z,101036.83
2022-10-11T08:25:56.919Z,101035.55
2022-10-11T08:28:24.456Z,101038.51
2022-10-11T08:30:54.046Z,101036.64
2022-10-11T08:33:23.394Z,101041.48
2022-10-11T08:35:52.600Z,101038.62
2022-10-11T08:38:20.573Z,101042.16
2022-10-11T08:40:49.654Z,101046.46
2022-10-11T08:43:32.267Z,101051.45
2022-10-11T08:46:01.495Z,101057.86
2022-10-11T08:48:42.267Z,101058.72
2022-10-11T08:51:19.100Z,101061.70
2022-10-11T08:53:57.419Z,101059.36
2022-10-11T08:56:25.097Z,101065.23
2022-10-11T08:59:13.010Z,101060.71
2022-10-11T09:01:45.317Z,101062.92
2022-10-11T09:04:17.766Z,101063.23
2022-10-11T09:07:06.015Z,101060.92
2022-10-11T09:09:50.788Z,101063.45
2022-10-11T09:12:20.995Z,101057.91
2022-10-11T09:15:12.951Z,101065.69
2022-10-11T09:18:13.152Z,101065.15
2022-10-11T09:20:53.618Z,101064.77
2022-10-11T09:23:43.618Z,101061.16
2022-10-11T09:26:29.796Z,101062.78
2022-10-11T09:29:29.294Z,101065.41
2022-10-11T09:31:57.576Z,101063.20
2022-10-11T09:34:27.583Z,101058.35
2022-10-11T09:37:04.357Z,101062.39
2022-10-11T09:39:39.970Z,101062.44
2022-10-11T09:42:09.430Z,101065.89
2022-10-11T09:44:46.517Z,101065.19
2022-10-11T09:47:25.834Z,101066.56
2022-10-11T09:50:01.696Z,101063.02
2022-10-11T09:52:29.057Z,101063.98
2022-10-11T09:54:58.673Z,101059.56
2022-10-11T09:57:31.215Z,101064.06
2022-10-11T10:00:05.664Z,101065.77
2022-10-11T10:02:49.880Z,101059.34
2022-10-11T10:05:25.970Z,101070.34
2022-10-11T10:08:11.659Z,101069.23
2022-10-11T10:10:43.098Z,101070.14
2022-10-11T10:13:34.002Z,101070.88
2022-10-11T10:16:01.841Z,101074.20
2022-10-11T10:18:43.749Z,101072.39
2022-10-11T10:21:14.786Z,101073.11
2022-10-11T10:23:43.064Z,101073.65
2022-10-11T10:26:19.443Z,101071.70
2022-10-11T10:29:16.912Z,101075.33
2022-10-11T10:32:13.531Z,101078.81
2022-10-11T10:34:59.023Z,101080.14
2022-10-11T10:37:33.045Z,101074.95
2022-10-11T10:40:22.611Z,101077.52
2022-10-11T10:42:50.786Z,101081.65
2022-10-11T10:45:21.750Z,101077.60
2022-10-11T10:48:04.746Z,101084.67
2022-10-11T10:50:53.416Z,101086.30
2022-10-11T10:53:39.372Z,101083.56
2022-10-11T10:56:24.677Z,101083.06
2022-10-11T10:59:17.209Z,101080.64
2022-10-11T11:02:15.868Z,101077.41
2022-10-11T11:05:09.247Z,101080.42
2022-10-11T11:07:42.856Z,101078.56
2022-10-11T11:10:24.146Z,101074.73
2022-10-11T11:13:12.073Z,101080.79
2022-10-11T11:15:56.536Z,101079.06
2022-10-11T11:18:55.512Z,101082.07
2022-10-11T11:21:32.032Z,101074.27
2022-10-11T11:24:26.075Z,101076.58
2022-10-11T11:26:59.754Z,101075.71
2022-10-11T11:29:34.316Z,101081.26
2022-10-11T11:32:26.245Z,101082.88
2022-10-11T11:35:04.957Z,101078.11
2022-10-11T11:37:37.229Z,101071.64
2022-10-11T11:40:22.591Z,101072.35
2022-10-11T11:42:53.967Z,101072.38
2022-10-11T11:45:37.893Z,101076.82
2022-10-11T11:48:13.527Z,101074.85
2022-10-11T11:50:45.307Z,101075.64
2022-10-11T11:53:16.417Z,101083.85
2022-10-11T11:55:56.850Z,101085.82
2022-10-11T11:58:49.959Z,101083.27
2022-10-11T12:01:54.662Z,101082.13
2022-10-11T12:04:37.915Z,101081.36
2022-10-11T12:07:17.301Z,101081.33
2022-10-11T12:09:50.864Z,101078.52
2022-10-11T12:12:34.405Z,101079.90
2022-10-11T12:15:04.717Z,101080.34
2022-10-11T12:17:32.656Z,101074.83
2022-10-11T12:20:07.221Z,101074.11
2022-10-11T12:22:34.445Z,101078.41
2022-10-11T12:25:28.843Z,101071.16
2022-10-11T12:28:00.895Z,101073.82
2022-10-11T12:30:51.218Z,101074.18
2022-10-11T12:33:23.178Z,101072.20
2022-10-11T12:35:53.277Z,101071.65
2022-10-11T12:38:31.181Z,101071.71
2022-10-11T12:41:01.019Z,101070.85
2022-10-11T12:43:38.496Z,101067.72
2022-10-11T12:46:31.543Z,101068.53
2022-10-11T12:49:36.793Z,101068.20
2022-10-11T12:52:28.318Z,101067.20
2022-10-11T12:55:04.177Z,101070.23
2022-10-11T12:57:49.838Z,101068.65
2022-10-11T13:00:22.639Z,101068.34
2022-10-11T13:02:50.499Z,101069.09
2022-10-11T13:05:17.854Z,101070.16
2022-10-11T13:07:46.639Z,101070.21
2022-10-11T13:10:16.677Z,101069.95
2022-10-11T13:12:47.164Z,101070.71
2022-10-11T13:15:17.967Z,101074.56
2022-10-11T13:17:45.476Z,101077.90
2022-10-11T13:20:21.921Z,101072.27
2022-10-11T13:22:53.987Z,101074.10
2022-10-11T13:25:24.220Z,101068.80
2022-10-11T13:27:54.140Z,101073.83
2022-10-11T13:30:26.860Z,101068.18
2022-10-11T13:32:54.797Z,101068.29
2022-10-11T13:35:35.654Z,101068.63
2022-10-11T13:38:03.738Z,101066.89
2022-10-11T13:40:31.482Z,101068.50
2022-10-11T13:42:59.054Z,101065.90
2022-10-11T13:45:28.454Z,101062.77
2022-10-11T13:47:55.897Z,101063.46
2022-10-11T13:50:35.057Z,101064.08
2022-10-11T13:53:11.918Z,101063.08
2022-10-11T13:55:50.430Z,101058.52
2022-10-11T13:58:24.413Z,101060.83
2022-10-11T14:01:00.559Z,101063.48
2022-10-11T14:03:39.441Z,101063.85
2022-10-11T14:06:07.525Z,101066.95
2022-10-11T14:08:56.364Z,101068.11
2022-10-11T14:11:36.258Z,101065.06
2022-10-11T14:14:31.514Z,101067.45
2022-10-11T14:17:05.114Z,101070.05
2022-10-11T14:19:32.467Z,101065.13
2022-10-11T14:21:59.610Z,101065.02
2022-10-11T14:24:26.763Z,101065.13
2022-10-11T14:26:56.243Z,101064.86
2022-10-11T14:29:32.754Z,101065.45
2022-10-11T14:32:06.895Z,101062.60
2022-10-11T14:34:34.934Z,101065.06
2022-10-11T14:37:02.410Z,101064.46
2022-10-11T14:39:32.300Z,101066.52
2022-10-11T14:41:59.877Z,101061.63
2022-10-11T14:44:27.430Z,101065.67
2022-10-11T14:46:55.213Z,101065.23
2022-10-11T14:49:27.936Z,101067.66
2022-10-11T14:51:57.438Z,101070.79
2022-10-11T14:54:26.153Z,101069.19
2022-10-11T14:56:55.750Z,101069.63
2022-10-11T14:59:25.621Z,101074.33
2022-10-11T15:01:56.051Z,101076.07
2022-10-11T15:04:25.734Z,101075.98
2022-10-11T15:06:54.384Z,101072.16
2022-10-11T15:09:23.385Z,101070.20
2022-10-11T15:11:52.993Z,101068.98
2022-10-11T15:14:24.304Z,101072.56
2022-10-11T15:16:51.826Z,101073.50
2022-10-11T15:19:23.872Z,101071.16
2022-10-11T15:21:51.825Z,101072.31
2022-10-11T15:24:22.929Z,101075.94
2022-10-11T15:26:50.910Z,101073.73
2022-10-11T15:29:18.525Z,101072.16
2022-10-11T15:31:49.768Z,101074.00
2022-10-11T15:34:18.137Z,101074.88
2022-10-11T15:36:47.626Z,101075.50
2022-10-11T15:39:31.741Z,101079.44
2022-10-11T15:42:03.187Z,101082.35
2022-10-11T15:44:33.345Z,101077.63
2022-10-11T15:47:00.620Z,101084.66
2022-10-11T15:49:28.250Z,101079.35
2022-10-11T15:51:55.806Z,101081.29
2022-10-11T15:54:23.033Z,101085.21
2022-10-11T15:56:52.067Z,101085.05
2022-10-11T15:59:19.308Z,101085.49
2022-10-11T16:01:50.822Z,101085.77
2022-10-11T16:04:18.317Z,101087.91
2022-10-11T16:06:45.699Z,101089.61
2022-10-11T16:09:13.846Z,101086.54
2022-10-11T16:11:40.985Z,101089.81
2022-10-11T16:14:08.761Z,101095.18
2022-10-11T16:16:39.090Z,101099.36
2022-10-11T16:19:09.319Z,101098.80
2022-10-11T16:21:36.476Z,101098.02
2022-10-11T16:24:07.695Z,101099.52
2022-10-11T16:26:34.950Z,101099.59
2022-10-11T16:29:02.316Z,101098.05
2022-10-11T16:31:29.576Z,101101.84
2022-10-11T16:33:57.318Z,101100.52
2022-10-11T16:36:36.752Z,101105.02
2022-10-11T16:39:11.621Z,101106.58
2022-10-11T16:41:39.359Z,101110.25
2022-10-11T16:44:07.117Z,101114.02
2022-10-11T16:46:35.098Z,101114.77
2022-10-11T16:49:02.545Z,101118.95
2022-10-11T16:51:30.007Z,101119.79
2022-10-11T16:53:57.365Z,101117.11
2022-10-11T16:56:25.525Z,101125.20
2022-10-11T16:58:53.651Z,101120.73
2022-10-11T17:01:21.387Z,101124.80
2022-10-11T17:03:50.156Z,101131.67
2022-10-11T17:06:17.812Z,101131.08
2022-10-11T17:08:45.276Z,101133.06
2022-10-11T17:11:13.136Z,101131.23
2022-10-11T17:13:40.389Z,101130.23
2022-10-11T17:16:08.707Z,101130.81
2022-10-11T17:18:37.244Z,101135.31
2022-10-11T17:21:09.316Z,101133.11
2022-10-11T17:23:37.298Z,101136.39
2022-10-11T17:26:10.948Z,101135.95
2022-10-11T17:28:39.540Z,101136.64
2022-10-11T17:31:08.555Z,101137.94
2022-10-11T17:33:36.960Z,101137.97
2022-10-11T17:36:35.135Z,101138.45
2022-10-11T17:39:09.192Z,101140.54
2022-10-11T17:41:37.700Z,101141.86
2022-10-11T17:44:06.296Z,101137.31
2022-10-11T17:46:33.974Z,101139.17
2022-10-11T17:49:05.113Z,101139.55
2022-10-11T17:51:33.597Z,101142.27
2022-10-11T17:54:01.548Z,101140.53
2022-10-11T17:56:35.026Z,101142.96
2022-10-11T17:59:04.749Z,101142.06
2022-10-11T18:01:33.716Z,101143.61
2022-10-11T18:04:04.578Z,101147.06
2022-10-11T18:06:34.900Z,101144.83
2022-10-11T18:09:03.805Z,101147.44
2022-10-11T18:11:31.999Z,101147.93
2022-10-11T18:13:59.735Z,101145.98
2022-10-11T18:16:29.970Z,101146.45
2022-10-11T18:18:58.133Z,101146.05
2022-10-11T18:21:34.298Z,101148.41
2022-10-11T18:24:06.001Z,101153.64
2022-10-11T18:26:34.238Z,101153.14
2022-10-11T18:29:02.515Z,101148.64
2022-10-11T18:31:34.486Z,101147.14
2022-10-11T18:34:03.475Z,101149.95
2022-10-11T18:36:35.056Z,101149.95
2022-10-11T18:39:05.653Z,101154.69
2022-10-11T18:41:36.128Z,101150.06
2022-10-11T18:44:06.280Z,101147.99
2022-10-11T18:46:33.956Z,101149.04
2022-10-11T18:49:02.895Z,101150.20
2022-10-11T18:51:34.010Z,101148.22
2022-10-11T18:54:03.574Z,101153.46
2022-10-11T18:56:33.013Z,101151.36
2022-10-11T18:59:00.777Z,101149.48
2022-10-11T19:01:31.168Z,101149.16
2022-10-11T19:04:00.107Z,101149.07
2022-10-11T19:06:31.036Z,101151.23
2022-10-11T19:09:09.639Z,101150.61
2022-10-11T19:11:38.001Z,101146.42
2022-10-11T19:14:08.778Z,101150.38
2022-10-11T19:16:40.525Z,101157.95
2022-10-11T19:19:08.493Z,101157.55
2022-10-11T19:21:35.931Z,101158.64
2022-10-11T19:24:03.397Z,101158.91
2022-10-11T19:26:34.156Z,101159.11
2022-10-11T19:29:04.905Z,101164.80
2022-10-11T19:31:35.694Z,101162.55
2022-10-11T19:34:04.274Z,101158.73
2022-10-11T19:36:36.412Z,101161.96
2022-10-11T19:39:05.578Z,101163.35
2022-10-11T19:41:33.193Z,101166.56
2022-10-11T19:44:01.116Z,101163.41
2022-10-11T19:49:21.676Z,101168.15
2022-10-11T19:51:50.179Z,101172.14
2022-10-11T19:54:17.726Z,101174.18
2022-10-11T19:56:46.055Z,101178.54
2022-10-11T19:59:14.277Z,101181.82
2022-10-11T20:01:42.096Z,101179.64
2022-10-11T20:04:33.237Z,101181.89
2022-10-11T20:07:00.809Z,101181.42
2022-10-11T20:09:30.258Z,101183.02
2022-10-11T20:11:59.519Z,101184.02
2022-10-11T20:14:27.989Z,101184.27
2022-10-11T20:16:55.557Z,101183.23
2022-10-11T20:19:27.871Z,101187.67
2022-10-11T20:21:58.052Z,101186.55
2022-10-11T20:24:28.160Z,101189.01
2022-10-11T20:26:56.832Z,101183.19
2022-10-11T20:29:25.749Z,101183.13
2022-10-11T20:31:53.816Z,101187.13
2022-10-11T20:34:21.156Z,101190.14
2022-10-11T20:36:49.379Z,101190.45
2022-10-11T20:39:17.402Z,101197.51
2022-10-11T20:41:44.853Z,101197.13
2022-10-11T20:44:13.839Z,101196.11
2022-10-11T20:46:41.234Z,101194.44
2022-10-11T20:49:11.121Z,101194.59
2022-10-11T20:51:40.538Z,101200.92
2022-10-11T20:54:09.318Z,101198.56
2022-10-11T20:56:36.976Z,101198.36
2022-10-11T20:59:05.662Z,101198.37
2022-10-11T21:01:35.950Z,101195.23
2022-10-11T21:04:04.381Z,101195.44
2022-10-11T21:06:32.946Z,101195.27
2022-10-11T21:09:01.269Z,101196.39
2022-10-11T21:11:31.643Z,101201.09
2022-10-11T21:14:01.779Z,101197.51
2022-10-11T21:16:29.645Z,101197.77
2022-10-11T21:18:58.826Z,101196.41
2022-10-11T21:21:27.996Z,101197.42
2022-10-11T21:24:00.726Z,101199.18
2022-10-11T21:26:31.567Z,101196.54
2022-10-11T21:29:02.188Z,101198.98
2022-10-11T21:31:34.075Z,101196.85
2022-10-11T21:34:03.567Z,101199.35
2022-10-11T21:36:31.035Z,101199.89
2022-10-11T21:38:58.791Z,101200.50
2022-10-11T21:41:31.590Z,101199.92
2022-10-11T21:43:59.603Z,101198.48
2022-10-11T21:46:47.980Z,101199.34
2022-10-11T21:49:17.367Z,101196.98
2022-10-11T21:51:46.208Z,101199.48
2022-10-11T21:54:14.029Z,101197.36
2022-10-11T21:56:41.586Z,101194.84
2022-10-11T21:59:12.291Z,101194.81
2022-10-11T22:01:41.311Z,101193.45
2022-10-11T22:04:09.436Z,101192.19
2022-10-11T22:06:40.352Z,101194.43
2022-10-11T22:09:08.729Z,101195.58
2022-10-11T22:11:36.656Z,101195.87
2022-10-11T22:14:05.556Z,101196.93
2022-10-11T22:16:34.551Z,101194.58
2022-10-11T22:19:02.350Z,101198.04
2022-10-11T22:21:30.268Z,101197.39
2022-10-11T22:23:57.928Z,101199.89
2022-10-11T22:26:28.383Z,101195.08
2022-10-11T22:28:55.871Z,101196.95
2022-10-11T22:31:24.197Z,101194.81
2022-10-11T22:34:00.246Z,101196.30
2022-10-11T22:36:28.846Z,101198.14
2022-10-11T22:38:56.313Z,101198.19
2022-10-11T22:41:24.078Z,101196.63
2022-10-11T22:43:51.634Z,101192.81
2022-10-11T22:46:19.196Z,101193.86
2022-10-11T22:48:46.432Z,101194.34
2022-10-11T22:51:14.745Z,101193.87
2022-10-11T22:53:42.175Z,101189.06
2022-10-11T22:56:11.035Z,101192.39
2022-10-11T22:58:38.526Z,101192.68
2022-10-11T23:01:14.905Z,101191.30
2022-10-11T23:03:42.795Z,101195.16
2022-10-11T23:06:11.338Z,101190.55
2022-10-11T23:08:38.868Z,101195.25
2022-10-11T23:11:07.429Z,101194.40
2022-10-11T23:13:35.255Z,101192.77
2022-10-11T23:16:12.947Z,101195.96
2022-10-11T23:18:40.204Z,101195.48
2022-10-11T23:21:08.122Z,101197.83
2022-10-11T23:23:36.147Z,101194.89
2022-10-11T23:26:13.003Z,101197.00
2022-10-11T23:28:41.037Z,101195.73
2022-10-11T23:31:11.047Z,101194.98
2022-10-11T23:33:38.551Z,101196.08
2022-10-11T23:36:06.618Z,101195.38
2022-10-11T23:38:34.004Z,101201.91
2022-10-11T23:41:01.513Z,101201.59
2022-10-11T23:43:29.070Z,101203.27
2022-10-11T23:45:56.649Z,101204.48
2022-10-11T23:48:23.987Z,101204.23
2022-10-11T23:50:51.239Z,101200.86
2022-10-11T23:53:18.699Z,101200.14
2022-10-11T23:55:46.064Z,101198.67
2022-10-11T23:58:13.536Z,101200.95
